createdAt,value
2017-11-10T00:00:40.064Z,14.93
2017-11-10T00:03:09.196Z,15.20
2017-11-10T00:05:36.994Z,14.83
2017-11-10T00:08:05.160Z,14.47
2017-11-10T00:10:32.670Z,14.63
2017-11-10T00:13:00.119Z,14.43
2017-11-10T00:15:27.624Z,14.10
2017-11-10T00:17:55.865Z,14.63
2017-11-10T00:20:24.146Z,14.03
2017-11-10T00:22:52.132Z,12.90
2017-11-10T00:25:20.444Z,13.80
2017-11-10T00:27:47.965Z,14.33
2017-11-10T00:30:16.215Z,14.60
2017-11-10T00:32:43.678Z,14.77
2017-11-10T00:35:12.626Z,15.57
2017-11-10T00:37:40.592Z,15.80
2017-11-10T00:40:08.039Z,13.37
2017-11-10T00:42:36.865Z,15.27
2017-11-10T00:45:04.736Z,14.83
2017-11-10T00:47:32.177Z,13.93
2017-11-10T00:50:00.206Z,13.93
2017-11-10T00:52:28.423Z,15.40
2017-11-10T00:54:55.884Z,13.50
2017-11-10T00:57:24.981Z,13.40
2017-11-10T00:59:52.425Z,13.17
2017-11-10T01:02:20.922Z,12.83
2017-11-10T01:04:49.683Z,13.60
2017-11-10T01:07:17.772Z,12.80
2017-11-10T01:09:45.210Z,13.43
2017-11-10T01:12:12.721Z,12.80
2017-11-10T01:14:40.959Z,14.27
2017-11-10T01:17:08.409Z,12.77
2017-11-10T01:19:35.893Z,12.70
2017-11-10T01:22:04.888Z,12.50
2017-11-10T01:24:32.327Z,13.60
2017-11-10T01:26:59.828Z,14.77
2017-11-10T01:29:28.131Z,15.20
2017-11-10T01:31:55.695Z,15.40
2017-11-10T01:34:24.207Z,14.80
2017-11-10T01:36:51.739Z,15.93
2017-11-10T01:39:19.600Z,15.60
2017-11-10T01:41:47.038Z,15.90
2017-11-10T01:44:18.561Z,16.87
2017-11-10T01:46:46.006Z,57.33
2017-11-10T01:49:13.732Z,39.23
2017-11-10T01:51:41.186Z,70.57
2017-11-10T01:54:08.665Z,16.93
2017-11-10T01:56:36.199Z,16.20
2017-11-10T01:59:04.496Z,16.17
2017-11-10T02:01:32.387Z,16.00
2017-11-10T02:04:02.204Z,15.10
2017-11-10T02:06:30.405Z,16.93
2017-11-10T02:08:58.967Z,13.73
2017-11-10T02:11:27.319Z,15.70
2017-11-10T02:13:54.772Z,15.80
2017-11-10T02:16:22.668Z,15.83
2017-11-10T02:18:50.892Z,14.27
2017-11-10T02:21:18.379Z,15.00
2017-11-10T02:23:45.828Z,15.30
2017-11-10T02:26:13.330Z,16.17
2017-11-10T02:28:41.643Z,14.97
2017-11-10T02:31:10.368Z,15.27
2017-11-10T02:33:38.932Z,14.43
2017-11-10T02:36:07.934Z,15.73
2017-11-10T02:38:36.404Z,15.47
2017-11-10T02:41:03.894Z,15.80
2017-11-10T02:43:32.477Z,16.67
2017-11-10T02:46:00.786Z,16.93
2017-11-10T02:48:29.817Z,18.13
2017-11-10T02:50:57.283Z,17.60
2017-11-10T02:53:24.751Z,18.43
2017-11-10T02:55:52.250Z,18.87
2017-11-10T02:58:21.177Z,17.27
2017-11-10T03:00:49.212Z,18.70
2017-11-10T03:03:18.004Z,18.80
2017-11-10T03:05:45.990Z,16.60
2017-11-10T03:08:13.754Z,18.50
2017-11-10T03:10:41.288Z,18.70
2017-11-10T03:13:08.815Z,18.70
2017-11-10T03:15:37.480Z,20.07
2017-11-10T03:18:05.691Z,18.43
2017-11-10T03:20:33.523Z,18.80
2017-11-10T03:23:00.993Z,18.53
2017-11-10T03:25:29.868Z,19.27
2017-11-10T03:27:57.339Z,18.87
2017-11-10T03:30:26.937Z,18.60
2017-11-10T03:32:55.156Z,19.43
2017-11-10T03:35:23.974Z,19.30
2017-11-10T03:37:51.581Z,17.60
2017-11-10T03:40:19.061Z,20.07
2017-11-10T03:42:47.187Z,18.43
2017-11-10T03:45:14.681Z,18.73
2017-11-10T03:47:43.043Z,18.97
2017-11-10T03:50:11.862Z,20.43
2017-11-10T03:52:39.797Z,19.30
2017-11-10T03:55:07.281Z,19.67
2017-11-10T03:57:35.589Z,20.70
2017-11-10T04:00:03.553Z,20.70
2017-11-10T04:02:32.034Z,20.60
2017-11-10T04:04:59.811Z,18.93
2017-11-10T04:07:27.562Z,19.40
2017-11-10T04:09:55.010Z,19.23
2017-11-10T04:12:23.017Z,21.00
2017-11-10T04:14:50.473Z,20.00
2017-11-10T04:17:19.109Z,20.40
2017-11-10T04:19:46.546Z,20.83
2017-11-10T04:22:14.021Z,19.60
2017-11-10T04:24:41.461Z,20.00
2017-11-10T04:27:09.259Z,20.37
2017-11-10T04:29:36.745Z,19.57
2017-11-10T04:32:04.987Z,19.60
2017-11-10T04:34:33.072Z,19.40
2017-11-10T04:37:00.553Z,21.03
2017-11-10T04:39:28.871Z,20.20
2017-11-10T04:41:56.326Z,20.80
2017-11-10T04:44:24.224Z,20.37
2017-11-10T04:46:51.691Z,21.90
2017-11-10T04:49:19.555Z,21.27
2017-11-10T04:51:47.073Z,20.80
2017-11-10T04:54:14.509Z,21.87
2017-11-10T04:56:42.339Z,21.87
2017-11-10T04:59:10.489Z,23.27
2017-11-10T05:01:38.355Z,22.30
2017-11-10T05:04:06.657Z,21.50
2017-11-10T05:06:34.615Z,21.30
2017-11-10T05:09:02.323Z,22.23
2017-11-10T05:11:29.834Z,22.80
2017-11-10T05:13:57.329Z,23.03
2017-11-10T05:16:24.845Z,22.80
2017-11-10T05:18:52.281Z,23.67
2017-11-10T05:21:19.794Z,22.70
2017-11-10T05:23:48.291Z,25.90
2017-11-10T05:26:17.420Z,22.60
2017-11-10T05:28:44.854Z,22.20
2017-11-10T05:31:12.317Z,24.47
2017-11-10T05:33:41.535Z,23.77
2017-11-10T05:36:09.578Z,24.83
2017-11-10T05:38:37.586Z,23.60
2017-11-10T05:41:05.061Z,25.20
2017-11-10T05:43:33.621Z,24.07
2017-11-10T05:46:01.070Z,24.07
2017-11-10T05:48:29.974Z,23.63
2017-11-10T05:50:57.595Z,24.77
2017-11-10T05:53:26.843Z,23.57
2017-11-10T05:55:54.617Z,25.37
2017-11-10T05:58:23.162Z,25.67
2017-11-10T06:00:51.277Z,25.10
2017-11-10T06:03:20.849Z,25.03
2017-11-10T06:05:49.018Z,24.70
2017-11-10T06:08:17.290Z,25.67
2017-11-10T06:10:44.849Z,26.33
2017-11-10T06:13:12.306Z,26.53
2017-11-10T06:15:39.817Z,26.10
2017-11-10T06:18:07.304Z,25.27
2017-11-10T06:20:34.770Z,26.20
2017-11-10T06:23:02.578Z,25.60
2017-11-10T06:25:30.889Z,34.90
2017-11-10T06:27:58.363Z,57.63
2017-11-10T06:30:25.982Z,27.90
2017-11-10T06:32:54.228Z,23.90
2017-11-10T06:35:22.635Z,25.90
2017-11-10T06:37:50.875Z,24.37
2017-11-10T06:40:18.733Z,26.97
2017-11-10T06:42:46.698Z,26.00
2017-11-10T06:45:14.537Z,26.80
2017-11-10T06:47:41.994Z,25.97
2017-11-10T06:50:10.061Z,25.37
2017-11-10T06:52:37.548Z,27.23
2017-11-10T06:55:05.424Z,26.13
2017-11-10T06:57:33.462Z,26.80
2017-11-10T07:00:00.928Z,26.87
2017-11-10T07:02:28.711Z,25.20
2017-11-10T07:04:57.502Z,24.13
2017-11-10T07:07:25.570Z,26.30
2017-11-10T07:09:53.462Z,53.87
2017-11-10T07:12:21.777Z,41.43
2017-11-10T07:14:49.247Z,24.77
2017-11-10T07:17:16.792Z,25.43
2017-11-10T07:19:44.814Z,24.80
2017-11-10T07:22:12.267Z,27.13
2017-11-10T07:24:39.942Z,24.33
2017-11-10T07:27:08.494Z,25.97
2017-11-10T07:29:35.959Z,25.60
2017-11-10T07:32:03.442Z,27.70
2017-11-10T07:34:32.770Z,26.20
2017-11-10T07:37:00.218Z,26.83
2017-11-10T07:39:27.988Z,26.67
2017-11-10T07:41:55.700Z,26.23
2017-11-10T07:44:25.059Z,26.33
2017-11-10T07:46:52.516Z,26.73
2017-11-10T07:49:20.409Z,25.43
2017-11-10T07:51:48.286Z,25.60
2017-11-10T07:54:15.742Z,27.87
2017-11-10T07:56:43.282Z,26.80
2017-11-10T07:59:10.972Z,26.73
2017-11-10T08:01:39.200Z,24.53
2017-11-10T08:04:08.504Z,25.80
2017-11-10T08:06:35.943Z,26.10
2017-11-10T08:09:03.677Z,25.03
2017-11-10T08:11:32.285Z,24.70
2017-11-10T08:13:59.711Z,22.17
2017-11-10T08:16:27.287Z,22.13
2017-11-10T08:18:55.855Z,23.37
2017-11-10T08:21:23.332Z,22.53
2017-11-10T08:23:51.529Z,22.47
2017-11-10T08:26:19.007Z,23.33
2017-11-10T08:28:46.448Z,20.67
2017-11-10T08:31:13.898Z,22.83
2017-11-10T08:33:42.094Z,22.63
2017-11-10T08:36:10.066Z,23.83
2017-11-10T08:38:37.541Z,22.73
2017-11-10T08:41:04.997Z,20.00
2017-11-10T08:43:32.934Z,20.10
2017-11-10T08:46:00.376Z,20.80
2017-11-10T08:48:28.683Z,21.20
2017-11-10T08:50:56.122Z,19.20
2017-11-10T08:53:23.599Z,19.77
2017-11-10T08:55:51.040Z,19.03
2017-11-10T08:58:18.917Z,20.67
2017-11-10T09:00:47.394Z,19.87
2017-11-10T09:03:15.571Z,18.63
2017-11-10T09:05:43.548Z,18.60
2017-11-10T09:08:11.411Z,18.90
2017-11-10T09:10:38.966Z,19.13
2017-11-10T09:13:06.767Z,18.73
2017-11-10T09:15:35.386Z,17.23
2017-11-10T09:18:02.819Z,16.70
2017-11-10T09:20:32.285Z,19.10
2017-11-10T09:22:59.801Z,17.77
2017-11-10T09:25:27.340Z,17.50
2017-11-10T09:28:04.750Z,16.30
2017-11-10T09:30:33.159Z,16.90
2017-11-10T09:33:11.234Z,16.53
2017-11-10T09:35:44.130Z,16.90
2017-11-10T09:38:30.620Z,16.33
2017-11-10T09:41:16.786Z,15.20
2017-11-10T09:44:02.227Z,14.70
2017-11-10T09:46:50.675Z,15.47
2017-11-10T09:49:25.105Z,14.57
2017-11-10T09:52:08.492Z,15.47
2017-11-10T09:54:50.848Z,15.47
2017-11-10T09:57:25.141Z,15.33
2017-11-10T10:00:05.259Z,16.83
2017-11-10T10:02:48.011Z,16.67
2017-11-10T10:05:17.116Z,17.13
2017-11-10T10:08:08.228Z,16.60
2017-11-10T10:10:50.741Z,17.97
2017-11-10T10:13:21.760Z,17.77
2017-11-10T10:15:52.877Z,16.10
2017-11-10T10:18:20.786Z,16.63
2017-11-10T10:20:53.933Z,16.30
2017-11-10T10:23:21.507Z,16.93
2017-11-10T10:25:49.717Z,16.80
2017-11-10T10:28:17.203Z,16.20
2017-11-10T10:30:45.499Z,16.07
2017-11-10T10:33:12.988Z,16.87
2017-11-10T10:35:40.822Z,18.03
2017-11-10T10:38:08.290Z,16.17
2017-11-10T10:40:35.786Z,17.47
2017-11-10T10:43:03.630Z,18.90
2017-11-10T10:45:31.110Z,16.03
2017-11-10T10:47:58.754Z,16.50
2017-11-10T10:50:26.631Z,17.40
2017-11-10T10:52:54.237Z,18.70
2017-11-10T10:55:21.715Z,15.60
2017-11-10T10:57:49.827Z,15.20
2017-11-10T11:00:18.093Z,17.53
2017-11-10T11:02:45.987Z,15.03
2017-11-10T11:05:14.847Z,16.47
2017-11-10T11:07:42.819Z,16.17
2017-11-10T11:10:10.717Z,16.80
2017-11-10T11:12:39.667Z,16.67
2017-11-10T11:15:07.121Z,16.10
2017-11-10T11:17:34.583Z,18.27
2017-11-10T11:20:02.036Z,16.23
2017-11-10T11:22:29.527Z,19.33
2017-11-10T11:24:57.825Z,16.40
2017-11-10T11:27:25.418Z,17.40
2017-11-10T11:29:52.882Z,19.60
2017-11-10T11:32:20.392Z,16.60
2017-11-10T11:34:48.003Z,16.60
2017-11-10T11:37:15.466Z,18.60
2017-11-10T11:39:42.931Z,19.23
2017-11-10T11:42:10.749Z,17.30
2017-11-10T11:44:38.946Z,18.13
2017-11-10T11:47:06.415Z,19.30
2017-11-10T11:49:34.283Z,19.17
2017-11-10T11:52:01.751Z,17.33
2017-11-10T11:54:29.829Z,16.83
2017-11-10T11:56:58.212Z,17.40
2017-11-10T11:59:27.289Z,17.47
2017-11-10T12:01:55.450Z,17.93
2017-11-10T12:04:23.312Z,18.40
2017-11-10T12:06:51.174Z,19.43
2017-11-10T12:09:19.025Z,20.20
2017-11-10T12:11:46.469Z,20.63
2017-11-10T12:14:14.024Z,16.97
2017-11-10T12:16:41.602Z,16.60
2017-11-10T12:19:09.866Z,19.87
2017-11-10T12:21:37.353Z,22.50
2017-11-10T12:24:04.799Z,19.37
2017-11-10T12:26:32.267Z,23.87
2017-11-10T12:28:59.716Z,19.57
2017-11-10T12:31:27.281Z,19.13
2017-11-10T12:33:54.742Z,21.87
2017-11-10T12:36:22.250Z,20.60
2017-11-10T12:38:49.699Z,19.40
2017-11-10T12:41:18.226Z,15.70
2017-11-10T12:43:46.094Z,14.30
2017-11-10T12:46:13.553Z,28.30
2017-11-10T12:48:42.050Z,13.87
2017-11-10T12:51:09.730Z,11.67
2017-11-10T12:53:37.664Z,12.90
2017-11-10T12:56:05.187Z,10.60
2017-11-10T12:58:32.894Z,10.83
2017-11-10T13:01:01.600Z,9.87
2017-11-10T13:03:31.891Z,9.33
2017-11-10T13:05:59.888Z,11.00
2017-11-10T13:08:29.228Z,8.57
2017-11-10T13:10:57.128Z,10.10
2017-11-10T13:13:24.585Z,9.93
2017-11-10T13:15:52.070Z,9.93
2017-11-10T13:18:20.296Z,9.37
2017-11-10T13:20:47.782Z,9.90
2017-11-10T13:23:15.430Z,10.70
2017-11-10T13:25:43.168Z,9.43
2017-11-10T13:28:10.671Z,8.20
2017-11-10T13:30:39.715Z,8.10
2017-11-10T13:33:07.549Z,8.30
2017-11-10T13:35:35.785Z,8.60
2017-11-10T13:38:03.320Z,10.50
2017-11-10T13:40:30.765Z,8.37
2017-11-10T13:42:58.666Z,8.93
2017-11-10T13:45:26.195Z,8.40
2017-11-10T13:47:53.754Z,8.83
2017-11-10T13:50:21.565Z,8.83
2017-11-10T13:52:49.006Z,8.30
2017-11-10T13:55:16.788Z,7.37
2017-11-10T13:57:44.668Z,9.10
2017-11-10T14:00:12.111Z,7.37
2017-11-10T14:02:41.690Z,6.43
2017-11-10T14:05:09.677Z,7.80
2017-11-10T14:07:37.631Z,7.57
2017-11-10T14:10:05.955Z,7.20
2017-11-10T14:12:34.167Z,7.07
2017-11-10T14:15:01.717Z,7.00
2017-11-10T14:17:29.165Z,7.63
2017-11-10T14:19:56.625Z,6.93
2017-11-10T14:22:24.132Z,6.00
2017-11-10T14:24:51.577Z,3.80
2017-11-10T14:27:19.999Z,2.43
2017-11-10T14:29:47.438Z,2.67
2017-11-10T14:32:15.667Z,2.30
2017-11-10T14:34:43.120Z,2.60
2017-11-10T14:37:10.876Z,2.73
2017-11-10T14:39:38.347Z,2.73
2017-11-10T14:42:06.434Z,2.70
2017-11-10T14:44:34.402Z,2.10
2017-11-10T14:47:10.284Z,5.07
2017-11-10T14:49:39.037Z,22.77
2017-11-10T14:52:06.494Z,3.07
2017-11-10T14:54:33.930Z,2.83
2017-11-10T14:57:01.378Z,2.37
2017-11-10T14:59:29.177Z,2.73
2017-11-10T15:01:56.955Z,2.13
2017-11-10T15:04:24.799Z,2.43
2017-11-10T15:06:52.231Z,2.20
2017-11-10T15:09:19.918Z,1.90
2017-11-10T15:11:47.691Z,1.80
2017-11-10T15:14:16.316Z,2.03
2017-11-10T15:16:43.788Z,2.00
2017-11-10T15:19:11.591Z,1.80
2017-11-10T15:21:39.057Z,1.83
2017-11-10T15:24:07.151Z,1.80
2017-11-10T15:26:35.390Z,2.83
2017-11-10T15:29:02.847Z,1.90
2017-11-10T15:31:30.289Z,2.50
2017-11-10T15:33:57.902Z,2.30
2017-11-10T15:36:25.321Z,1.40
2017-11-10T15:38:53.286Z,2.23
2017-11-10T15:41:20.888Z,1.87
2017-11-10T15:43:49.379Z,1.90
2017-11-10T15:46:17.464Z,1.60
2017-11-10T15:48:45.463Z,1.80
2017-11-10T15:51:12.898Z,2.10
2017-11-10T15:53:40.378Z,2.07
2017-11-10T15:56:08.734Z,1.50
2017-11-10T15:58:36.517Z,1.70
2017-11-10T16:01:05.063Z,1.77
2017-11-10T16:03:33.484Z,1.40
2017-11-10T16:06:01.600Z,3.23
2017-11-10T16:08:30.359Z,2.00
2017-11-10T16:10:58.315Z,2.40
2017-11-10T16:13:25.783Z,1.90
2017-11-10T16:15:53.401Z,2.40
2017-11-10T16:18:21.215Z,2.17
2017-11-10T16:20:49.041Z,2.00
2017-11-10T16:23:17.145Z,2.50
2017-11-10T16:25:46.525Z,3.37
2017-11-10T16:28:13.985Z,1.90
2017-11-10T16:30:41.527Z,2.00
2017-11-10T16:33:09.891Z,2.10
2017-11-10T16:35:37.972Z,1.97
2017-11-10T16:38:06.304Z,2.50
2017-11-10T16:40:34.532Z,1.80
2017-11-10T16:43:03.101Z,1.73
2017-11-10T16:45:30.633Z,2.00
2017-11-10T16:48:00.262Z,2.10
2017-11-10T16:50:28.491Z,2.73
2017-11-10T16:52:58.765Z,2.37
2017-11-10T16:55:27.920Z,2.80
2017-11-10T16:57:57.564Z,2.37
2017-11-10T17:00:25.031Z,1.53
2017-11-10T17:02:53.040Z,2.00
2017-11-10T17:05:21.035Z,1.77
2017-11-10T17:07:48.778Z,112.93
2017-11-10T17:10:17.024Z,7.03
2017-11-10T17:12:44.872Z,4.10
2017-11-10T17:15:12.422Z,22.87
2017-11-10T17:17:39.978Z,5.87
2017-11-10T17:20:07.968Z,2.33
2017-11-10T17:22:35.417Z,2.33
2017-11-10T17:25:03.804Z,2.40
2017-11-10T17:27:31.692Z,2.43
2017-11-10T17:29:59.175Z,3.47
2017-11-10T17:32:27.432Z,2.80
2017-11-10T17:34:57.295Z,2.07
2017-11-10T17:37:24.772Z,2.43
2017-11-10T17:39:53.127Z,2.33
2017-11-10T17:42:21.817Z,2.47
2017-11-10T17:44:49.371Z,2.03
2017-11-10T17:47:17.852Z,2.10
2017-11-10T17:49:46.742Z,2.57
2017-11-10T17:52:14.647Z,2.70
2017-11-10T17:54:42.583Z,2.60
2017-11-10T17:57:10.089Z,2.30
2017-11-10T17:59:37.833Z,3.10
2017-11-10T18:02:05.801Z,2.00
2017-11-10T18:04:33.577Z,2.70
2017-11-10T18:07:01.014Z,2.57
2017-11-10T18:09:28.670Z,1.90
2017-11-10T18:11:56.512Z,2.20
2017-11-10T18:14:24.070Z,1.90
2017-11-10T18:16:52.611Z,2.20
2017-11-10T18:19:20.814Z,2.70
2017-11-10T18:21:48.717Z,2.33
2017-11-10T18:24:17.109Z,2.50
2017-11-10T18:26:46.289Z,3.30
2017-11-10T18:29:13.762Z,3.10
2017-11-10T18:31:41.418Z,3.50
2017-11-10T18:34:08.873Z,2.67
2017-11-10T18:36:36.311Z,4.50
2017-11-10T18:39:03.787Z,4.60
2017-11-10T18:41:31.296Z,4.57
2017-11-10T18:43:59.315Z,5.33
2017-11-10T18:46:26.749Z,5.77
2017-11-10T18:48:57.060Z,4.50
2017-11-10T18:51:24.855Z,3.40
2017-11-10T18:53:52.327Z,4.60
2017-11-10T18:56:19.784Z,3.90
2017-11-10T18:58:47.450Z,3.77
2017-11-10T19:01:15.163Z,4.43
2017-11-10T19:03:43.210Z,3.27
2017-11-10T19:06:11.404Z,2.87
2017-11-10T19:08:39.246Z,3.77
2017-11-10T19:11:07.446Z,4.70
2017-11-10T19:13:35.174Z,4.23
2017-11-10T19:16:03.377Z,4.10
2017-11-10T19:18:31.223Z,3.20
2017-11-10T19:20:58.704Z,3.50
2017-11-10T19:23:26.142Z,3.20
2017-11-10T19:25:53.721Z,3.40
2017-11-10T19:28:21.183Z,2.50
2017-11-10T19:30:48.753Z,2.60
2017-11-10T19:33:16.795Z,2.70
2017-11-10T19:35:44.362Z,2.73
2017-11-10T19:38:11.811Z,2.90
2017-11-10T19:40:39.279Z,2.80
2017-11-10T19:43:06.984Z,4.50
2017-11-10T19:45:34.462Z,3.97
2017-11-10T19:48:03.635Z,3.70
2017-11-10T19:50:32.235Z,2.80
2017-11-10T19:52:59.704Z,3.20
2017-11-10T19:55:27.901Z,2.30
2017-11-10T19:57:55.772Z,3.30
2017-11-10T20:00:23.336Z,2.50
2017-11-10T20:02:51.047Z,2.83
2017-11-10T20:05:18.792Z,3.20
2017-11-10T20:07:47.021Z,2.83
2017-11-10T20:10:15.962Z,2.97
2017-11-10T20:12:43.887Z,2.20
2017-11-10T20:15:12.127Z,2.57
2017-11-10T20:17:40.337Z,2.60
2017-11-10T20:20:08.164Z,2.20
2017-11-10T20:22:36.000Z,3.00
2017-11-10T20:25:03.480Z,3.33
2017-11-10T20:27:32.475Z,3.07
2017-11-10T20:30:00.926Z,2.43
2017-11-10T20:32:28.378Z,2.70
2017-11-10T20:34:56.732Z,2.27
2017-11-10T20:37:24.191Z,3.00
2017-11-10T20:39:51.729Z,2.70
2017-11-10T20:42:20.871Z,2.30
2017-11-10T20:44:48.316Z,2.40
2017-11-10T20:47:16.197Z,2.17
2017-11-10T20:49:44.978Z,3.13
2017-11-10T20:52:12.751Z,2.50
2017-11-10T20:54:40.994Z,1.90
2017-11-10T20:57:08.490Z,1.90
2017-11-10T20:59:36.213Z,2.20
2017-11-10T21:02:04.946Z,1.87
2017-11-10T21:04:33.718Z,1.97
2017-11-10T21:07:01.504Z,2.33
2017-11-10T21:09:29.414Z,1.90
2017-11-10T21:11:57.527Z,2.37
2017-11-10T21:14:24.957Z,2.63
2017-11-10T21:16:52.425Z,2.63
2017-11-10T21:19:19.890Z,2.40
2017-11-10T21:21:48.747Z,5.23
2017-11-10T21:24:16.283Z,2.70
2017-11-10T21:26:43.895Z,2.70
2017-11-10T21:29:11.422Z,2.77
2017-11-10T21:31:38.898Z,3.20
2017-11-10T21:34:07.355Z,2.80
2017-11-10T21:36:34.819Z,3.43
2017-11-10T21:39:02.296Z,2.87
2017-11-10T21:41:29.827Z,3.37
2017-11-10T21:43:57.849Z,2.80
2017-11-10T21:46:25.305Z,2.43
2017-11-10T21:48:53.878Z,2.30
2017-11-10T21:51:23.161Z,2.57
2017-11-10T21:53:50.604Z,2.47
2017-11-10T21:56:18.690Z,2.73
2017-11-10T21:58:46.462Z,2.73
2017-11-10T22:01:14.125Z,2.20
2017-11-10T22:03:42.438Z,2.53
2017-11-10T22:06:12.110Z,2.37
2017-11-10T22:08:39.724Z,2.50
2017-11-10T22:11:07.189Z,2.10
2017-11-10T22:13:34.889Z,2.10
2017-11-10T22:16:03.843Z,2.00
2017-11-10T22:18:31.297Z,2.83
2017-11-10T22:20:58.733Z,2.60
2017-11-10T22:23:26.198Z,2.90
2017-11-10T22:25:53.643Z,2.60
2017-11-10T22:28:22.010Z,1.80
2017-11-10T22:30:50.218Z,2.57
2017-11-10T22:33:17.824Z,3.57
2017-11-10T22:35:45.954Z,2.00
2017-11-10T22:38:13.396Z,3.37
2017-11-10T22:40:40.969Z,2.70
2017-11-10T22:43:09.058Z,2.57
2017-11-10T22:45:36.528Z,2.73
2017-11-10T22:48:03.962Z,2.50
2017-11-10T22:50:31.576Z,2.13
2017-11-10T22:53:00.398Z,2.90
2017-11-10T22:55:28.441Z,2.43
2017-11-10T22:57:57.170Z,3.50
2017-11-10T23:00:24.645Z,2.60
2017-11-10T23:02:52.476Z,3.10
2017-11-10T23:05:20.344Z,2.17
2017-11-10T23:07:48.338Z,2.70
2017-11-10T23:10:15.999Z,2.60
2017-11-10T23:12:43.830Z,2.53
2017-11-10T23:15:11.298Z,2.30
2017-11-10T23:17:38.750Z,2.20
2017-11-10T23:20:06.202Z,2.53
2017-11-10T23:22:33.642Z,3.43
2017-11-10T23:25:01.102Z,2.47
2017-11-10T23:27:28.560Z,2.87
2017-11-10T23:29:55.994Z,2.70
2017-11-10T23:32:24.202Z,3.10
2017-11-10T23:34:52.057Z,2.60
2017-11-10T23:37:19.493Z,3.17
2017-11-10T23:39:48.958Z,4.20
2017-11-10T23:42:16.810Z,3.40
2017-11-10T23:44:44.705Z,2.50
2017-11-10T23:47:12.141Z,2.53
2017-11-10T23:49:39.907Z,2.47
2017-11-10T23:52:08.273Z,2.17
2017-11-10T23:54:35.721Z,2.63
2017-11-10T23:57:03.191Z,2.40
2017-11-10T23:59:31.379Z,2.37
